createdAt,value
2023-02-19T00:01:45.694Z,101849.47
2023-02-19T00:04:15.043Z,101846.88
2023-02-19T00:06:43.190Z,101847.81
2023-02-19T00:09:12.390Z,101852.09
2023-02-19T00:11:40.060Z,101853.81
2023-02-19T00:14:07.183Z,101854.78
2023-02-19T00:16:36.374Z,101854.78
2023-02-19T00:19:05.237Z,101855.66
2023-02-19T00:21:32.075Z,101853.00
2023-02-19T00:24:01.471Z,101860.81
2023-02-19T00:26:28.903Z,101856.53
2023-02-19T00:28:57.150Z,101866.13
2023-02-19T00:31:31.477Z,101868.66
2023-02-19T00:34:01.312Z,101870.38
2023-02-19T00:36:28.887Z,101866.94
2023-02-19T00:38:55.370Z,101858.31
2023-02-19T00:41:24.181Z,101866.06
2023-02-19T00:43:57.885Z,101858.25
2023-02-19T00:46:29.980Z,101867.81
2023-02-19T00:48:57.620Z,101866.97
2023-02-19T00:51:28.524Z,101872.13
2023-02-19T00:53:55.065Z,101872.16
2023-02-19T00:56:21.712Z,101867.81
2023-02-19T00:58:48.922Z,101868.72
2023-02-19T01:01:15.916Z,101867.88
2023-02-19T01:03:42.832Z,101871.38
2023-02-19T01:06:10.930Z,101869.66
2023-02-19T01:08:38.013Z,101874.88
2023-02-19T01:11:05.745Z,101877.44
2023-02-19T01:13:32.517Z,101887.00
2023-02-19T01:16:08.417Z,101881.81
2023-02-19T01:18:35.383Z,101886.13
2023-02-19T01:21:07.278Z,101890.47
2023-02-19T01:23:34.159Z,101891.31
2023-02-19T01:26:00.624Z,101892.22
2023-02-19T01:28:27.084Z,101897.50
2023-02-19T01:30:53.575Z,101901.03
2023-02-19T01:33:20.062Z,101904.56
2023-02-19T01:35:46.506Z,101905.44
2023-02-19T01:38:12.932Z,101911.47
2023-02-19T01:40:39.379Z,101906.34
2023-02-19T01:43:15.079Z,101902.06
2023-02-19T01:45:44.237Z,101900.41
2023-02-19T01:48:22.860Z,101907.34
2023-02-19T01:51:11.427Z,101904.84
2023-02-19T01:53:41.857Z,101905.78
2023-02-19T01:56:09.478Z,101908.41
2023-02-19T01:58:37.239Z,101915.34
2023-02-19T02:01:07.259Z,101910.25
2023-02-19T02:03:35.451Z,101899.00
2023-02-19T02:06:08.024Z,101906.81
2023-02-19T02:08:53.428Z,101904.28
2023-02-19T02:11:20.598Z,101906.94
2023-02-19T02:13:48.111Z,101912.13
2023-02-19T02:16:19.153Z,101902.63
2023-02-19T02:18:48.646Z,101919.16
2023-02-19T02:24:24.320Z,101913.94
2023-02-19T02:27:08.727Z,101920.94
2023-02-19T02:29:47.331Z,101916.56
2023-02-19T02:32:20.620Z,101915.72
2023-02-19T02:34:59.539Z,101915.72
2023-02-19T02:37:30.323Z,101914.03
2023-02-19T02:39:58.435Z,101923.63
2023-02-19T02:42:27.863Z,101927.97
2023-02-19T02:45:14.397Z,101930.56
2023-02-19T02:47:50.664Z,101925.44
2023-02-19T02:50:25.297Z,101928.91
2023-02-19T02:53:18.404Z,101928.06
2023-02-19T02:55:49.081Z,101929.88
2023-02-19T02:58:16.896Z,101922.09
2023-02-19T03:01:05.678Z,101933.34
2023-02-19T03:03:32.621Z,101935.09
2023-02-19T03:06:04.665Z,101936.84
2023-02-19T03:08:49.364Z,101937.69
2023-02-19T03:11:34.343Z,101935.13
2023-02-19T03:14:32.038Z,101938.63
2023-02-19T03:17:37.090Z,101941.16
2023-02-19T03:20:07.810Z,101948.94
2023-02-19T03:22:37.867Z,101946.34
2023-02-19T03:25:28.574Z,101947.25
2023-02-19T03:27:58.597Z,101952.47
2023-02-19T03:30:31.187Z,101949.03
2023-02-19T03:33:03.326Z,101952.53
2023-02-19T03:35:33.301Z,101957.75
2023-02-19T03:38:03.380Z,101957.75
2023-02-19T03:40:34.488Z,101964.72
2023-02-19T03:43:24.074Z,101960.34
2023-02-19T03:45:56.987Z,101966.41
2023-02-19T03:48:31.220Z,101970.75
2023-02-19T03:51:20.499Z,101982.84
2023-02-19T03:53:53.618Z,101977.69
2023-02-19T03:56:32.106Z,101974.19
2023-02-19T03:59:08.956Z,101977.75
2023-02-19T04:01:44.380Z,101989.88
2023-02-19T04:04:13.518Z,101993.34
2023-02-19T04:06:42.699Z,101995.97
2023-02-19T04:09:14.502Z,101989.94
2023-02-19T04:11:41.707Z,102001.19
2023-02-19T04:14:08.095Z,102001.25
2023-02-19T04:16:39.218Z,102009.91
2023-02-19T04:19:11.496Z,102009.97
2023-02-19T04:21:40.797Z,102010.00
2023-02-19T04:24:13.248Z,102016.09
2023-02-19T04:26:40.419Z,102013.50
2023-02-19T04:29:07.020Z,102012.69
2023-02-19T04:31:35.788Z,102019.63
2023-02-19T04:34:03.844Z,102017.94
2023-02-19T04:36:32.095Z,102028.34
2023-02-19T04:38:58.932Z,102028.41
2023-02-19T04:41:25.459Z,102046.59
2023-02-19T04:43:51.908Z,102043.09
2023-02-19T04:46:18.416Z,102053.47
2023-02-19T04:48:44.870Z,102048.31
2023-02-19T04:51:11.794Z,102050.88
2023-02-19T04:53:38.512Z,102045.72
2023-02-19T04:56:12.988Z,102059.59
2023-02-19T04:58:40.611Z,102066.47
2023-02-19T05:01:07.871Z,102068.25
2023-02-19T05:03:37.307Z,102080.31
2023-02-19T05:06:06.138Z,102076.88
2023-02-19T05:08:32.779Z,102071.75
2023-02-19T05:11:00.669Z,102073.44
2023-02-19T05:13:27.428Z,102081.31
2023-02-19T05:15:55.766Z,102081.31
2023-02-19T05:18:22.277Z,102089.09
2023-02-19T05:20:49.635Z,102095.16
2023-02-19T05:23:16.069Z,102092.59
2023-02-19T05:25:42.515Z,102102.09
2023-02-19T05:28:17.873Z,102105.63
2023-02-19T05:30:52.158Z,102103.88
2023-02-19T05:33:20.838Z,102104.84
2023-02-19T05:35:49.861Z,102104.84
2023-02-19T05:38:17.583Z,102108.28
2023-02-19T05:40:45.518Z,102110.06
2023-02-19T05:43:13.483Z,102100.56
2023-02-19T05:45:40.503Z,102108.38
2023-02-19T05:48:07.885Z,102107.50
2023-02-19T05:50:37.286Z,102106.69
2023-02-19T05:53:05.729Z,102116.25
2023-02-19T05:55:36.415Z,102104.09
2023-02-19T05:58:03.415Z,102115.38
2023-02-19T06:00:30.529Z,102125.81
2023-02-19T06:02:56.991Z,102117.16
2023-02-19T06:05:23.668Z,102124.94
2023-02-19T06:07:50.567Z,102125.84
2023-02-19T06:10:18.061Z,102126.69
2023-02-19T06:12:44.805Z,102128.44
2023-02-19T06:15:11.325Z,102133.66
2023-02-19T06:17:37.785Z,102140.63
2023-02-19T06:20:04.472Z,102149.34
2023-02-19T06:22:30.919Z,102158.88
2023-02-19T06:24:57.392Z,102159.72
2023-02-19T06:27:23.859Z,102160.63
2023-02-19T06:29:50.432Z,102168.44
2023-02-19T06:32:17.083Z,102174.47
2023-02-19T06:34:43.612Z,102170.19
2023-02-19T06:37:10.130Z,102177.13
2023-02-19T06:39:36.714Z,102174.59
2023-02-19T06:42:03.249Z,102175.50
2023-02-19T06:44:30.177Z,102180.78
2023-02-19T06:46:56.869Z,102184.22
2023-02-19T06:49:23.613Z,102186.84
2023-02-19T06:51:50.062Z,102192.00
2023-02-19T06:54:16.496Z,102198.06
2023-02-19T06:56:46.074Z,102189.44
2023-02-19T06:59:16.951Z,102196.38
2023-02-19T07:01:44.708Z,102200.78
2023-02-19T07:04:11.619Z,102205.97
2023-02-19T07:06:38.531Z,102208.56
2023-02-19T07:09:06.400Z,102212.88
2023-02-19T07:11:34.385Z,102227.63
2023-02-19T07:14:04.691Z,102224.16
2023-02-19T07:16:31.454Z,102226.75
2023-02-19T07:18:59.280Z,102225.88
2023-02-19T07:21:26.405Z,102244.94
2023-02-19T07:23:52.950Z,102243.25
2023-02-19T07:26:20.313Z,102245.84
2023-02-19T07:28:48.623Z,102255.34
2023-02-19T07:31:16.551Z,102253.59
2023-02-19T07:33:46.846Z,102252.72
2023-02-19T07:36:15.250Z,102252.72
2023-02-19T07:38:41.697Z,102266.50
2023-02-19T07:41:08.148Z,102268.19
2023-02-19T07:43:37.061Z,102268.25
2023-02-19T07:46:14.085Z,102260.41
2023-02-19T07:48:42.675Z,102259.47
2023-02-19T07:51:14.010Z,102270.66
2023-02-19T07:53:40.549Z,102272.41
2023-02-19T07:56:08.630Z,102281.94
2023-02-19T07:58:35.193Z,102283.66
2023-02-19T08:01:14.795Z,102286.25
2023-02-19T08:03:41.913Z,102291.38
2023-02-19T08:06:09.080Z,102287.84
2023-02-19T08:08:35.583Z,102301.75
2023-02-19T08:11:23.004Z,102293.97
2023-02-19T08:13:51.042Z,102304.28
2023-02-19T08:16:29.597Z,102311.25
2023-02-19T08:18:56.441Z,102307.72
2023-02-19T08:21:22.962Z,102318.13
2023-02-19T08:23:51.201Z,102318.97
2023-02-19T08:26:18.417Z,102319.81
2023-02-19T08:28:44.946Z,102325.00
2023-02-19T08:31:12.509Z,102341.56
2023-02-19T08:33:39.112Z,102337.22
2023-02-19T08:36:07.677Z,102338.13
2023-02-19T08:38:35.902Z,102346.84
2023-02-19T08:41:11.796Z,102349.44
2023-02-19T08:43:39.293Z,102352.81
2023-02-19T08:46:07.186Z,102354.56
2023-02-19T08:48:33.861Z,102350.16
2023-02-19T08:51:07.075Z,102367.50
2023-02-19T08:53:35.461Z,102363.94
2023-02-19T08:56:13.668Z,102357.03
2023-02-19T08:58:40.496Z,102347.44
2023-02-19T09:01:12.586Z,102349.19
2023-02-19T09:03:39.478Z,102361.25
2023-02-19T09:06:06.228Z,102356.84
2023-02-19T09:08:32.857Z,102353.28
2023-02-19T09:11:04.590Z,102347.94
2023-02-19T09:13:31.129Z,102359.91
2023-02-19T09:15:57.725Z,102369.31
2023-02-19T09:18:25.657Z,102376.25
2023-02-19T09:20:52.136Z,102380.56
2023-02-19T09:23:18.617Z,102378.72
2023-02-19T09:25:45.085Z,102377.75
2023-02-19T09:28:11.809Z,102386.47
2023-02-19T09:30:38.310Z,102389.00
2023-02-19T09:33:05.977Z,102396.72
2023-02-19T09:35:32.500Z,102410.72
2023-02-19T09:38:03.102Z,102417.69
2023-02-19T09:40:30.323Z,102430.69
2023-02-19T09:42:58.447Z,102426.44
2023-02-19T09:45:26.885Z,102438.53
2023-02-19T09:47:57.129Z,102442.88
2023-02-19T09:50:31.886Z,102447.25
2023-02-19T09:53:03.229Z,102447.28
2023-02-19T09:55:37.957Z,102454.31
2023-02-19T09:58:35.610Z,102463.03
2023-02-19T10:01:05.125Z,102465.69
2023-02-19T10:03:35.417Z,102457.06
2023-02-19T10:06:24.602Z,102473.63
2023-02-19T10:09:18.652Z,102495.25
2023-02-19T10:11:45.181Z,102506.66
2023-02-19T10:14:19.553Z,102505.88
2023-02-19T10:16:50.066Z,102509.38
2023-02-19T10:19:16.629Z,102515.53
2023-02-19T10:21:44.356Z,102521.53
2023-02-19T10:24:20.883Z,102524.88
2023-02-19T10:26:47.902Z,102528.47
2023-02-19T10:29:14.288Z,102537.97
2023-02-19T10:31:40.850Z,102535.44
2023-02-19T10:34:18.215Z,102542.31
2023-02-19T10:36:48.551Z,102541.31
2023-02-19T10:39:50.516Z,102547.38
2023-02-19T10:42:22.295Z,102546.44
2023-02-19T10:44:58.528Z,102548.91
2023-02-19T10:47:27.102Z,102553.22
2023-02-19T10:49:59.865Z,102550.63
2023-02-19T10:52:34.382Z,102547.19
2023-02-19T10:55:26.734Z,102544.63
2023-02-19T10:57:53.127Z,102548.97
2023-02-19T11:00:31.060Z,102547.19
2023-02-19T11:03:23.837Z,102538.47
2023-02-19T11:06:04.314Z,102531.56
2023-02-19T11:08:38.234Z,102524.63
2023-02-19T11:11:04.962Z,102537.69
2023-02-19T11:13:37.921Z,102540.41
2023-02-19T11:16:05.373Z,102543.97
2023-02-19T11:18:32.970Z,102550.84
2023-02-19T11:21:01.873Z,102562.09
2023-02-19T11:23:44.841Z,102560.38
2023-02-19T11:26:35.274Z,102560.50
2023-02-19T11:29:16.530Z,102564.84
2023-02-19T11:31:43.043Z,102557.84
2023-02-19T11:34:17.371Z,102557.69
2023-02-19T11:36:43.795Z,102556.94
2023-02-19T11:39:10.151Z,102557.75
2023-02-19T11:41:54.760Z,102562.81
2023-02-19T11:44:51.034Z,102576.63
2023-02-19T11:47:29.569Z,102570.50
2023-02-19T11:50:19.234Z,102574.00
2023-02-19T11:53:27.843Z,102561.88
2023-02-19T11:56:15.751Z,102561.00
2023-02-19T11:59:02.105Z,102559.38
2023-02-19T12:01:43.682Z,102559.50
2023-02-19T12:04:41.883Z,102570.91
2023-02-19T12:07:11.320Z,102576.41
2023-02-19T12:09:49.892Z,102578.28
2023-02-19T12:12:25.491Z,102568.78
2023-02-19T12:15:05.787Z,102575.69
2023-02-19T12:18:04.425Z,102580.97
2023-02-19T12:20:43.760Z,102587.94
2023-02-19T12:23:46.192Z,102580.22
2023-02-19T12:26:33.005Z,102586.38
2023-02-19T12:29:33.061Z,102581.25
2023-02-19T12:32:03.718Z,102579.50
2023-02-19T12:34:44.988Z,102577.75
2023-02-19T12:37:52.776Z,102591.69
2023-02-19T12:40:49.178Z,102593.38
2023-02-19T12:43:22.385Z,102600.16
2023-02-19T12:46:14.648Z,102590.66
2023-02-19T12:49:00.132Z,102601.13
2023-02-19T12:51:40.140Z,102612.31
2023-02-19T12:54:25.008Z,102609.75
2023-02-19T12:56:57.988Z,102621.03
2023-02-19T12:59:27.298Z,102621.94
2023-02-19T13:02:11.509Z,102632.28
2023-02-19T13:05:05.709Z,102637.53
2023-02-19T13:07:38.100Z,102623.69
2023-02-19T13:10:33.910Z,102627.94
2023-02-19T13:13:06.970Z,102640.03
2023-02-19T13:15:41.681Z,102640.03
2023-02-19T13:18:18.711Z,102648.00
2023-02-19T13:20:47.846Z,102663.66
2023-02-19T13:23:42.259Z,102668.00
2023-02-19T13:26:11.853Z,102669.72
2023-02-19T13:28:59.626Z,102681.84
2023-02-19T13:32:03.309Z,102677.53
2023-02-19T13:34:36.049Z,102676.78
2023-02-19T13:37:03.259Z,102677.63
2023-02-19T13:39:31.302Z,102682.81
2023-02-19T13:41:59.349Z,102670.66
2023-02-19T13:44:32.176Z,102676.66
2023-02-19T13:46:59.590Z,102691.38
2023-02-19T13:49:39.335Z,102694.88
2023-02-19T13:52:30.554Z,102684.53
2023-02-19T13:55:34.654Z,102691.38
2023-02-19T13:58:39.681Z,102687.00
2023-02-19T14:01:09.842Z,102692.09
2023-02-19T14:03:54.300Z,102686.84
2023-02-19T14:06:21.350Z,102691.97
2023-02-19T14:08:57.703Z,102690.19
2023-02-19T14:11:42.462Z,102698.81
2023-02-19T14:14:26.403Z,102704.84
2023-02-19T14:16:57.984Z,102704.75
2023-02-19T14:19:42.792Z,102692.56
2023-02-19T14:22:47.206Z,102685.69
2023-02-19T14:25:31.802Z,102682.22
2023-02-19T14:28:10.468Z,102683.00
2023-02-19T14:30:57.791Z,102678.75
2023-02-19T14:33:29.279Z,102661.44
2023-02-19T14:36:21.606Z,102667.53
2023-02-19T14:38:53.481Z,102668.38
2023-02-19T14:41:23.063Z,102659.66
2023-02-19T14:43:51.734Z,102648.38
2023-02-19T14:46:23.981Z,102644.06
2023-02-19T14:48:50.882Z,102642.31
2023-02-19T14:51:27.662Z,102643.97
2023-02-19T14:53:56.408Z,102641.38
2023-02-19T14:56:26.426Z,102652.56
2023-02-19T14:59:08.254Z,102639.53
2023-02-19T15:01:34.729Z,102631.81
2023-02-19T15:04:01.261Z,102631.06
2023-02-19T15:06:28.745Z,102625.84
2023-02-19T15:08:59.193Z,102625.78
2023-02-19T15:11:28.710Z,102619.84
2023-02-19T15:14:00.841Z,102636.19
2023-02-19T15:16:29.120Z,102646.63
2023-02-19T15:18:57.853Z,102656.25
2023-02-19T15:21:39.995Z,102665.84
2023-02-19T15:24:07.171Z,102671.09
2023-02-19T15:26:40.441Z,102684.13
2023-02-19T15:29:12.308Z,102692.72
2023-02-19T15:31:51.010Z,102698.03
2023-02-19T15:34:37.760Z,102704.09
2023-02-19T15:37:07.722Z,102707.59
2023-02-19T15:39:40.044Z,102709.34
2023-02-19T15:42:11.136Z,102714.56
2023-02-19T15:44:49.396Z,102706.00
2023-02-19T15:47:22.717Z,102707.81
2023-02-19T15:50:11.493Z,102707.88
2023-02-19T15:53:01.159Z,102696.69
2023-02-19T15:55:39.070Z,102687.22
2023-02-19T15:58:20.596Z,102695.09
2023-02-19T16:00:59.264Z,102700.31
2023-02-19T16:03:28.153Z,102707.28
2023-02-19T16:06:02.432Z,102710.72
2023-02-19T16:08:39.746Z,102723.75
2023-02-19T16:11:24.644Z,102734.19
2023-02-19T16:13:51.968Z,102735.97
2023-02-19T16:16:35.321Z,102743.78
2023-02-19T16:19:02.110Z,102744.72
2023-02-19T16:21:28.982Z,102750.75
2023-02-19T16:24:13.374Z,102743.94
2023-02-19T16:26:41.055Z,102745.59
2023-02-19T16:29:19.692Z,102741.28
2023-02-19T16:31:56.391Z,102742.16
2023-02-19T16:34:47.025Z,102751.72
2023-02-19T16:37:59.103Z,102750.91
2023-02-19T16:41:00.715Z,102748.31
2023-02-19T16:43:38.153Z,102750.09
2023-02-19T16:46:07.013Z,102750.13
2023-02-19T16:48:33.842Z,102749.31
2023-02-19T16:51:00.401Z,102759.72
2023-02-19T16:53:26.988Z,102768.41
2023-02-19T16:55:53.500Z,102771.84
2023-02-19T16:58:20.462Z,102762.31
2023-02-19T17:00:47.403Z,102767.56
2023-02-19T17:03:18.229Z,102756.41
2023-02-19T17:05:45.230Z,102744.28
2023-02-19T17:08:33.769Z,102738.25
2023-02-19T17:11:06.453Z,102746.91
2023-02-19T17:13:33.022Z,102748.63
2023-02-19T17:15:59.692Z,102749.53
2023-02-19T17:18:26.259Z,102752.13
2023-02-19T17:21:20.620Z,102753.06
2023-02-19T17:23:47.226Z,102764.28
2023-02-19T17:26:18.965Z,102766.00
2023-02-19T17:28:45.541Z,102774.63
2023-02-19T17:31:13.633Z,102772.09
2023-02-19T17:33:41.017Z,102784.19
2023-02-19T17:36:08.203Z,102772.06
2023-02-19T17:38:35.100Z,102776.44
2023-02-19T17:41:01.523Z,102780.75
2023-02-19T17:43:27.925Z,102785.03
2023-02-19T17:45:54.447Z,102794.56
2023-02-19T17:48:20.920Z,102802.38
2023-02-19T17:50:49.250Z,102808.41
2023-02-19T17:53:15.790Z,102810.13
2023-02-19T17:55:42.248Z,102804.97
2023-02-19T17:58:08.715Z,102811.03
2023-02-19T18:00:36.579Z,102804.97
2023-02-19T18:03:03.922Z,102802.38
2023-02-19T18:05:31.382Z,102804.13
2023-02-19T18:07:57.877Z,102798.13
2023-02-19T18:10:25.239Z,102794.63
2023-02-19T18:12:51.767Z,102783.41
2023-02-19T18:15:21.727Z,102780.84
2023-02-19T18:17:48.264Z,102786.03
2023-02-19T18:20:16.767Z,102780.81
2023-02-19T18:22:43.261Z,102784.28
2023-02-19T18:25:10.985Z,102782.63
2023-02-19T18:27:37.816Z,102774.03
2023-02-19T18:30:05.657Z,102766.28
2023-02-19T18:32:32.146Z,102774.97
2023-02-19T18:35:00.164Z,102772.41
2023-02-19T18:37:30.033Z,102768.97
2023-02-19T18:39:57.763Z,102779.34
2023-02-19T18:42:24.325Z,102784.53
2023-02-19T18:44:52.699Z,102776.84
2023-02-19T18:47:21.538Z,102774.28
2023-02-19T18:49:51.866Z,102780.34
2023-02-19T18:52:21.168Z,102779.50
2023-02-19T18:54:52.465Z,102779.53
2023-02-19T18:57:21.442Z,102785.63
2023-02-19T18:59:48.754Z,102789.13
2023-02-19T19:02:16.844Z,102786.56
2023-02-19T19:04:43.440Z,102784.00
2023-02-19T19:07:10.260Z,102776.28
2023-02-19T19:09:37.154Z,102791.84
2023-02-19T19:12:03.925Z,102779.81
2023-02-19T19:14:30.378Z,102785.84
2023-02-19T19:16:56.892Z,102801.38
2023-02-19T19:19:23.593Z,102791.06
2023-02-19T19:21:53.453Z,102795.41
2023-02-19T19:24:21.453Z,102797.13
2023-02-19T19:26:48.920Z,102803.19
2023-02-19T19:29:17.202Z,102807.53
2023-02-19T19:31:44.586Z,102814.41
2023-02-19T19:34:12.854Z,102808.38
2023-02-19T19:36:39.303Z,102810.97
2023-02-19T19:39:07.890Z,102809.22
2023-02-19T19:41:34.350Z,102805.78
2023-02-19T19:44:08.722Z,102799.75
2023-02-19T19:46:35.250Z,102803.25
2023-02-19T19:49:01.805Z,102809.28
2023-02-19T19:51:32.815Z,102811.84
2023-02-19T19:53:59.669Z,102811.03
2023-02-19T19:56:26.130Z,102798.94
2023-02-19T19:58:52.517Z,102789.50
2023-02-19T20:01:21.270Z,102784.34
2023-02-19T20:03:48.026Z,102786.06
2023-02-19T20:06:14.541Z,102794.69
2023-02-19T20:08:41.261Z,102793.81
2023-02-19T20:11:07.649Z,102792.94
2023-02-19T20:13:34.529Z,102794.69
2023-02-19T20:16:01.019Z,102792.09
2023-02-19T20:18:27.537Z,102784.34
2023-02-19T20:20:54.021Z,102789.56
2023-02-19T20:23:20.480Z,102784.38
2023-02-19T20:25:46.927Z,102777.50
2023-02-19T20:28:13.391Z,102785.22
2023-02-19T20:30:39.902Z,102781.81
2023-02-19T20:33:06.379Z,102785.25
2023-02-19T20:35:33.718Z,102793.00
2023-02-19T20:38:00.255Z,102793.84
2023-02-19T20:40:30.401Z,102792.16
2023-02-19T20:42:57.387Z,102799.03
2023-02-19T20:45:23.894Z,102787.84
2023-02-19T20:47:50.293Z,102798.19
2023-02-19T20:50:18.736Z,102802.50
2023-02-19T20:52:46.065Z,102789.56
2023-02-19T20:55:12.966Z,102791.28
2023-02-19T20:57:39.388Z,102791.28
2023-02-19T21:00:07.107Z,102784.41
2023-02-19T21:02:33.910Z,102778.38
2023-02-19T21:05:00.889Z,102769.78
2023-02-19T21:07:27.371Z,102768.06
2023-02-19T21:09:54.524Z,102756.00
2023-02-19T21:12:22.491Z,102751.69
2023-02-19T21:14:49.364Z,102745.66
2023-02-19T21:17:15.955Z,102741.38
2023-02-19T21:19:42.522Z,102746.53
2023-02-19T21:22:09.007Z,102744.81
2023-02-19T21:24:35.545Z,102756.03
2023-02-19T21:27:02.051Z,102749.13
2023-02-19T21:29:28.486Z,102749.13
2023-02-19T21:31:56.884Z,102743.13
2023-02-19T21:34:26.864Z,102741.38
2023-02-19T21:36:54.378Z,102754.28
2023-02-19T21:39:22.653Z,102755.16
2023-02-19T21:41:49.821Z,102760.31
2023-02-19T21:44:16.816Z,102768.06
2023-02-19T21:46:43.201Z,102763.75
2023-02-19T21:49:10.434Z,102762.91
2023-02-19T21:51:39.942Z,102755.16
2023-02-19T21:54:07.930Z,102756.88
2023-02-19T21:56:36.483Z,102756.88
2023-02-19T21:59:03.710Z,102772.34
2023-02-19T22:01:33.320Z,102763.75
2023-02-19T22:04:00.633Z,102762.88
2023-02-19T22:06:29.650Z,102756.88
2023-02-19T22:08:56.490Z,102745.69
2023-02-19T22:11:23.252Z,102751.72
2023-02-19T22:13:49.989Z,102756.00
2023-02-19T22:16:17.660Z,102761.16
2023-02-19T22:18:52.453Z,102756.88
2023-02-19T22:21:20.310Z,102756.00
2023-02-19T22:23:47.697Z,102756.03
2023-02-19T22:26:37.244Z,102739.66
2023-02-19T22:29:07.136Z,102738.78
2023-02-19T22:31:34.752Z,102737.09
2023-02-19T22:34:01.375Z,102734.50
2023-02-19T22:36:31.009Z,102729.31
2023-02-19T22:38:57.547Z,102722.44
2023-02-19T22:41:23.994Z,102730.19
2023-02-19T22:43:53.597Z,102729.31
2023-02-19T22:46:22.932Z,102723.31
2023-02-19T22:48:50.519Z,102724.16
2023-02-19T22:51:19.612Z,102723.31
2023-02-19T22:53:47.602Z,102713.84
2023-02-19T22:56:15.489Z,102712.97
2023-02-19T22:58:42.421Z,102707.81
2023-02-19T23:01:10.484Z,102706.97
2023-02-19T23:03:57.172Z,102702.66
2023-02-19T23:06:34.645Z,102694.03
2023-02-19T23:09:09.821Z,102686.31
2023-02-19T23:11:39.439Z,102687.16
2023-02-19T23:14:07.424Z,102679.38
2023-02-19T23:16:35.947Z,102684.56
2023-02-19T23:19:05.019Z,102688.88
2023-02-19T23:21:32.098Z,102681.97
2023-02-19T23:23:59.286Z,102675.06
2023-02-19T23:26:25.817Z,102692.28
2023-02-19T23:28:52.348Z,102698.31
2023-02-19T23:31:19.022Z,102688.00
2023-02-19T23:33:45.652Z,102700.03
2023-02-19T23:36:13.695Z,102695.72
2023-02-19T23:38:40.392Z,102705.19
2023-02-19T23:41:11.627Z,102702.63
2023-02-19T23:43:38.792Z,102692.28
2023-02-19T23:46:05.736Z,102700.03
2023-02-19T23:48:32.613Z,102703.47
2023-02-19T23:50:59.327Z,102683.66
2023-02-19T23:53:25.879Z,102677.63
2023-02-19T23:55:52.318Z,102672.44
2023-02-19T23:58:19.145Z,102660.38
